Aviation Digital Data Service (ADDS)

Output produced by TAFs form (1130 UTC 19 January 2018)
found at http://www.aviationweather.gov/adds/tafs/
 
RJNT 191100Z 22003KT 9999 FEW020 SCT040 BKN/// 03/00 Q1020
TAF RJNT 191105Z 1912/2018 19004KT 9999 FEW020